Time;durP1;ratioP1;P1;durP2;ratioP2;P2;SDS_P1;SDS_P2;PMS_P1;PMS_P2;Temp;Humidity;BMP_temperature;BMP_pressure;BME280_temperature;BME280_humidity;BME280_pressure;Samples;Min_cycle;Max_cycle;Signal;HPM_P1;HPM_P2
2021/04/01 00:00:08;;;;;;;1.20;1.07;;;10.20;93.10;;;;;;5112399;28;20465;-69
2021/04/01 00:02:35;;;;;;;1.30;1.20;;;10.20;93.10;;;;;;5113893;28;20827;-69
2021/04/01 00:05:03;;;;;;;1.90;1.27;;;10.00;93.60;;;;;;5112266;28;20942;-69
2021/04/01 00:07:29;;;;;;;2.80;2.17;;;10.00;93.10;;;;;;5113864;28;20480;-69
2021/04/01 00:09:56;;;;;;;1.60;1.20;;;10.00;93.30;;;;;;5112022;28;20466;-70
2021/04/01 00:12:23;;;;;;;1.20;1.10;;;10.20;93.30;;;;;;5113666;28;20485;-69
2021/04/01 00:14:50;;;;;;;1.37;1.17;;;10.10;93.70;;;;;;5111773;28;20472;-69
2021/04/01 00:17:17;;;;;;;1.50;1.10;;;10.10;93.20;;;;;;5113069;28;20483;-70
2021/04/01 00:19:44;;;;;;;2.60;1.40;;;10.20;93.30;;;;;;5111842;28;20456;-69
2021/04/01 00:22:10;;;;;;;1.30;1.10;;;10.10;93.50;;;;;;5113252;28;20454;-68
2021/04/01 00:24:37;;;;;;;1.40;1.20;;;10.20;93.10;;;;;;5111561;28;20487;-68
2021/04/01 00:27:05;;;;;;;2.50;1.43;;;10.30;93.10;;;;;;5113091;28;20486;-69
2021/04/01 00:29:31;;;;;;;1.20;1.00;;;10.20;93.10;;;;;;5111740;28;20534;-68
2021/04/01 00:31:58;;;;;;;2.60;1.87;;;10.10;93.10;;;;;;5111816;28;20965;-69
2021/04/01 00:34:26;;;;;;;3.80;2.07;;;10.00;93.90;;;;;;5111340;28;20827;-70
2021/04/01 00:36:52;;;;;;;1.20;1.10;;;10.00;94.10;;;;;;5113024;28;20518;-69
2021/04/01 00:39:18;;;;;;;2.03;1.53;;;9.80;95.00;;;;;;5111508;28;20482;-68
2021/04/01 00:41:45;;;;;;;1.43;1.20;;;9.90;94.00;;;;;;5113016;28;20455;-69
2021/04/01 00:44:13;;;;;;;1.57;1.23;;;10.00;93.70;;;;;;5111332;28;20487;-69
2021/04/01 00:46:40;;;;;;;1.43;1.23;;;9.90;94.40;;;;;;5112957;28;20459;-69
2021/04/01 00:49:06;;;;;;;1.50;1.30;;;10.00;94.30;;;;;;5111403;28;20846;-69
2021/04/01 00:51:33;;;;;;;1.80;1.20;;;9.80;94.70;;;;;;5113837;28;20469;-68
2021/04/01 00:54:00;;;;;;;1.50;1.30;;;9.90;94.40;;;;;;5112138;28;20479;-70
2021/04/01 00:56:27;;;;;;;1.77;1.47;;;9.90;94.50;;;;;;5111381;28;20489;-70
2021/04/01 00:58:55;;;;;;;1.67;1.27;;;9.80;94.60;;;;;;5113034;28;20968;-68
2021/04/01 01:01:34;;;;;;;1.20;1.10;;;9.90;94.40;;;;;;5110866;28;20454;-69
2021/04/01 01:04:00;;;;;;;1.30;1.20;;;9.80;94.40;;;;;;5112052;28;20469;-69
2021/04/01 01:06:27;;;;;;;2.23;1.67;;;9.70;94.70;;;;;;5111794;28;20501;-69
2021/04/01 01:08:57;;;;;;;1.50;1.43;;;9.50;95.00;;;;;;5111731;28;20490;-69
2021/04/01 01:11:24;;;;;;;1.40;1.10;;;9.40;95.80;;;;;;5110618;28;20453;-69
2021/04/01 01:13:50;;;;;;;1.20;1.00;;;9.20;96.20;;;;;;5112525;28;20486;-69
2021/04/01 01:16:17;;;;;;;3.20;1.57;;;9.30;95.80;;;;;;5110415;28;20562;-69
2021/04/01 01:18:44;;;;;;;1.20;1.10;;;9.40;95.40;;;;;;5111007;28;20800;-69
2021/04/01 01:21:11;;;;;;;1.30;1.20;;;9.50;95.10;;;;;;5110424;28;20490;-69
2021/04/01 01:23:42;;;;;;;2.33;1.30;;;9.50;94.70;;;;;;5112138;28;20526;-69
2021/04/01 01:26:10;;;;;;;2.23;1.40;;;9.40;95.10;;;;;;5109081;28;20457;-69
2021/04/01 01:28:37;;;;;;;1.27;1.13;;;9.20;96.20;;;;;;5112155;28;20458;-68
2021/04/01 01:31:04;;;;;;;1.93;1.30;;;9.10;96.70;;;;;;5110475;28;20454;-69
2021/04/01 01:33:39;;;;;;;1.20;1.10;;;9.10;96.70;;;;;;5112164;28;20457;-70
2021/04/01 01:36:06;;;;;;;2.20;1.50;;;9.10;96.80;;;;;;5109038;28;20495;-69
2021/04/01 01:38:32;;;;;;;1.20;1.10;;;8.90;97.20;;;;;;5111937;28;20493;-69
2021/04/01 01:40:59;;;;;;;1.30;1.10;;;8.80;97.40;;;;;;5110019;28;20451;-69
2021/04/01 01:43:27;;;;;;;1.77;1.30;;;8.90;97.70;;;;;;5111779;28;20455;-69
2021/04/01 01:45:54;;;;;;;1.20;1.13;;;9.00;97.30;;;;;;5109720;28;20467;-69
2021/04/01 01:48:20;;;;;;;1.63;1.27;;;9.00;97.90;;;;;;5110531;28;20562;-69
2021/04/01 01:50:48;;;;;;;1.30;1.10;;;8.90;98.00;;;;;;5109719;28;20492;-71
2021/04/01 01:53:14;;;;;;;1.20;1.10;;;8.90;98.00;;;;;;5111626;28;20455;-69
2021/04/01 01:55:42;;;;;;;1.20;1.03;;;8.80;98.00;;;;;;5109592;28;20933;-69
2021/04/01 01:58:09;;;;;;;6.03;1.70;;;8.70;98.00;;;;;;5111370;28;20483;-69
2021/04/01 02:00:40;;;;;;;1.83;1.33;;;8.80;98.00;;;;;;5109916;28;20447;-70
2021/04/01 02:03:08;;;;;;;1.80;1.30;;;8.80;98.00;;;;;;5111341;28;20449;-69
2021/04/01 02:05:35;;;;;;;1.50;1.30;;;8.60;98.00;;;;;;5109500;28;20455;-69
2021/04/01 02:08:03;;;;;;;1.30;1.07;;;8.60;98.00;;;;;;5111676;28;20455;-69
2021/04/01 02:10:31;;;;;;;1.40;1.20;;;8.50;98.00;;;;;;5109273;28;20491;-69
2021/04/01 02:12:59;;;;;;;1.20;1.07;;;8.60;98.00;;;;;;5111355;28;20563;-69
2021/04/01 02:15:27;;;;;;;1.20;1.07;;;8.80;98.00;;;;;;5109321;28;20451;-68
2021/04/01 02:18:06;;;;;;;1.20;1.10;;;8.60;98.00;;;;;;5111147;28;20881;-69
2021/04/01 02:20:39;;;;;;;1.43;1.17;;;8.70;98.00;;;;;;5108474;28;20479;-68
2021/04/01 02:23:07;;;;;;;1.93;1.47;;;8.50;98.00;;;;;;5111181;28;20490;-68
2021/04/01 02:25:34;;;;;;;1.80;1.10;;;8.70;98.00;;;;;;5109180;28;20454;-70
2021/04/01 02:28:00;;;;;;;1.30;1.30;;;8.90;97.50;;;;;;5111036;28;20488;-69
2021/04/01 02:30:27;;;;;;;1.20;1.00;;;8.90;97.50;;;;;;5109428;28;20595;-68
2021/04/01 02:32:54;;;;;;;2.37;1.57;;;8.80;97.80;;;;;;5111061;28;20536;-69
2021/04/01 02:38:02;;;;;;;1.20;1.03;;;8.50;98.00;;;;;;5111042;28;21047;-68
2021/04/01 02:40:30;;;;;;;3.33;1.47;;;8.60;98.00;;;;;;5109302;28;20483;-69
2021/04/01 02:42:56;;;;;;;1.20;1.20;;;8.70;98.00;;;;;;5111009;28;20937;-68
2021/04/01 02:45:26;;;;;;;1.93;1.83;;;8.60;98.00;;;;;;5109256;28;20974;-69
2021/04/01 02:47:53;;;;;;;1.20;1.10;;;8.50;98.00;;;;;;5111247;28;20476;-70
2021/04/01 02:50:23;;;;;;;1.30;1.30;;;8.40;98.00;;;;;;5109248;28;20462;-69
2021/04/01 02:52:49;;;;;;;1.30;1.10;;;8.30;98.00;;;;;;5110736;28;20465;-69
2021/04/01 02:55:24;;;;;;;1.20;1.00;;;8.10;98.00;;;;;;5109182;28;20481;-69
2021/04/01 02:57:51;;;;;;;1.20;1.10;;;8.20;98.00;;;;;;5110730;28;20490;-68
2021/04/01 03:00:22;;;;;;;1.67;1.40;;;8.20;98.00;;;;;;5108937;28;20510;-68
2021/04/01 03:02:54;;;;;;;1.30;1.10;;;8.10;98.00;;;;;;5110664;28;20486;-70
2021/04/01 03:05:22;;;;;;;1.60;1.10;;;8.30;98.00;;;;;;5108845;28;20460;-68
2021/04/01 03:07:48;;;;;;;1.20;1.00;;;8.50;98.00;;;;;;5110792;28;20455;-69
2021/04/01 03:10:16;;;;;;;1.50;1.33;;;8.50;98.00;;;;;;5109042;28;20466;-71
2021/04/01 03:12:42;;;;;;;1.20;1.10;;;8.40;98.00;;;;;;5109223;28;20455;-69
2021/04/01 03:15:12;;;;;;;1.23;1.17;;;8.30;98.00;;;;;;5108768;28;20463;-70
2021/04/01 03:17:42;;;;;;;1.20;1.10;;;8.30;98.00;;;;;;5110341;28;20486;-71
2021/04/01 03:20:11;;;;;;;2.00;1.40;;;8.30;98.00;;;;;;5108648;28;20459;-68
2021/04/01 03:22:39;;;;;;;1.20;1.00;;;8.10;98.00;;;;;;5109157;28;20661;-69
2021/04/01 03:25:08;;;;;;;1.40;1.20;;;8.00;98.00;;;;;;5108594;28;20450;-68
2021/04/01 03:27:35;;;;;;;1.30;1.10;;;8.00;98.00;;;;;;5110605;28;20455;-70
2021/04/01 03:30:06;;;;;;;1.60;1.10;;;7.90;98.00;;;;;;5108926;28;20452;-69
2021/04/01 03:32:34;;;;;;;1.20;1.10;;;8.00;98.00;;;;;;5112960;28;20462;-69
2021/04/01 03:35:02;;;;;;;1.70;1.20;;;8.20;98.00;;;;;;5112618;28;20827;-69
2021/04/01 03:37:28;;;;;;;1.30;1.10;;;8.20;98.00;;;;;;5114219;28;20880;-69
2021/04/01 03:39:56;;;;;;;1.40;1.10;;;8.20;98.00;;;;;;5112301;28;20491;-71
2021/04/01 03:42:23;;;;;;;1.20;1.10;;;8.10;98.00;;;;;;5113890;28;20466;-69
2021/04/01 03:44:53;;;;;;;1.30;1.00;;;8.10;98.00;;;;;;5112315;28;21036;-69
2021/04/01 03:47:20;;;;;;;1.60;1.60;;;8.00;98.00;;;;;;5113867;28;20825;-69
2021/04/01 03:49:55;;;;;;;1.20;1.10;;;7.80;98.00;;;;;;5112192;28;20453;-68
2021/04/01 03:52:21;;;;;;;1.57;1.50;;;7.70;98.00;;;;;;5113910;28;20532;-69
2021/04/01 03:54:51;;;;;;;1.40;1.10;;;7.70;98.00;;;;;;5112246;28;20458;-68
2021/04/01 03:57:19;;;;;;;1.70;1.33;;;7.90;98.00;;;;;;5112620;28;20485;-69
2021/04/01 03:59:49;;;;;;;2.33;1.90;;;7.90;98.00;;;;;;5112104;28;20469;-70
2021/04/01 04:02:30;;;;;;;1.70;1.40;;;8.00;98.00;;;;;;5114092;27;20488;-68
2021/04/01 04:05:13;;;;;;;1.30;1.20;;;8.10;98.00;;;;;;5112179;28;20454;-69
2021/04/01 04:10:36;;;;;;;1.30;1.30;;;7.90;98.00;;;;;;5112163;28;20491;-68
2021/04/01 04:13:14;;;;;;;1.70;1.10;;;7.90;98.00;;;;;;5113784;28;20984;-69
2021/04/01 04:15:41;;;;;;;1.20;0.90;;;7.90;98.00;;;;;;5111598;28;20474;-70
2021/04/01 04:18:08;;;;;;;1.20;1.10;;;8.00;98.00;;;;;;5112702;28;20524;-69
2021/04/01 04:20:34;;;;;;;1.20;1.00;;;8.00;98.00;;;;;;5111630;28;20458;-68
2021/04/01 04:23:01;;;;;;;1.30;1.10;;;7.80;98.00;;;;;;5113514;28;20827;-68
2021/04/01 04:25:28;;;;;;;1.20;1.00;;;7.80;98.00;;;;;;5111676;28;20462;-68
2021/04/01 04:28:08;;;;;;;1.60;1.30;;;7.70;98.00;;;;;;5113396;28;20459;-68
2021/04/01 04:30:36;;;;;;;1.20;1.00;;;7.60;98.00;;;;;;5111436;28;20495;-69
2021/04/01 04:33:03;;;;;;;1.30;1.10;;;7.40;98.00;;;;;;5112092;28;20466;-69
2021/04/01 04:35:29;;;;;;;1.67;1.30;;;7.50;98.00;;;;;;5111281;28;20459;-68
2021/04/01 04:37:56;;;;;;;1.40;1.27;;;7.60;98.00;;;;;;5113082;28;21008;-68
2021/04/01 04:40:22;;;;;;;1.47;1.20;;;7.80;98.00;;;;;;5111255;28;20462;-69
2021/04/01 04:42:49;;;;;;;2.07;1.27;;;7.90;98.00;;;;;;5112189;28;20588;-69
2021/04/01 04:45:15;;;;;;;1.80;1.20;;;7.80;98.00;;;;;;5110873;28;20492;-69
2021/04/01 04:47:42;;;;;;;1.20;1.00;;;7.80;98.00;;;;;;5112967;28;20771;-69
2021/04/01 04:50:10;;;;;;;1.60;1.10;;;7.80;98.00;;;;;;5111178;28;20486;-69
2021/04/01 04:52:38;;;;;;;4.80;1.40;;;7.90;98.00;;;;;;5112889;28;20909;-68
2021/04/01 04:55:08;;;;;;;1.20;1.10;;;7.80;98.00;;;;;;5111046;28;20956;-69
2021/04/01 04:57:40;;;;;;;1.70;1.50;;;7.80;98.00;;;;;;5112688;28;20481;-70
2021/04/01 05:05:54;;;;;;;1.77;1.50;;;7.40;98.00;;;;;;5111043;28;20452;-69
2021/04/01 05:08:21;;;;;;;1.70;1.47;;;7.30;98.00;;;;;;5111497;28;20895;-69
2021/04/01 05:10:48;;;;;;;1.60;1.40;;;7.40;98.00;;;;;;5092740;28;20453;-68
2021/04/01 05:13:16;;;;;;;1.20;0.90;;;7.60;98.00;;;;;;5112492;28;20963;-69
2021/04/01 05:15:47;;;;;;;1.57;1.27;;;7.50;98.00;;;;;;5110356;28;20719;-69
2021/04/01 05:18:19;;;;;;;1.20;1.10;;;7.50;98.00;;;;;;5112502;28;20485;-68
2021/04/01 05:20:49;;;;;;;1.20;1.00;;;7.70;98.00;;;;;;5110559;28;20462;-68
2021/04/01 05:23:24;;;;;;;1.30;1.10;;;7.60;98.00;;;;;;5112410;28;20979;-68
2021/04/01 05:25:51;;;;;;;2.77;1.40;;;7.40;98.00;;;;;;5110467;28;20821;-69
2021/04/01 05:28:22;;;;;;;1.20;1.10;;;7.30;98.00;;;;;;5112250;28;20449;-70
2021/04/01 05:30:48;;;;;;;1.30;1.20;;;7.30;98.00;;;;;;5110050;28;21011;-69
2021/04/01 05:33:16;;;;;;;1.37;1.33;;;7.40;98.00;;;;;;5112236;28;20454;-70
2021/04/01 05:35:43;;;;;;;1.30;1.20;;;7.50;98.00;;;;;;5110197;28;20465;-69
2021/04/01 05:38:12;;;;;;;1.20;1.00;;;7.70;98.00;;;;;;5111973;28;20478;-69
2021/04/01 05:40:39;;;;;;;2.00;1.33;;;7.80;98.00;;;;;;5110200;28;20459;-68
2021/04/01 05:43:08;;;;;;;2.13;1.27;;;7.80;98.00;;;;;;5111814;28;20532;-68
2021/04/01 05:45:42;;;;;;;1.73;1.47;;;7.80;98.00;;;;;;5110149;28;20561;-69
2021/04/01 05:48:16;;;;;;;1.20;1.00;;;7.60;98.00;;;;;;5111713;28;20458;-69
2021/04/01 05:50:58;;;;;;;1.20;1.13;;;7.80;98.00;;;;;;5109891;28;20456;-71
2021/04/01 06:01:54;;;;;;;1.30;1.10;;;8.10;98.00;;;;;;5106073;28;20478;-68
2021/04/01 06:04:26;;;;;;;1.20;1.00;;;8.20;98.00;;;;;;5110219;28;20453;-69
2021/04/01 06:07:01;;;;;;;1.20;1.00;;;8.30;98.00;;;;;;5109659;28;20486;-69
2021/04/01 06:09:35;;;;;;;1.20;1.03;;;8.40;98.00;;;;;;5111605;28;20991;-69
2021/04/01 06:12:01;;;;;;;1.30;1.20;;;8.40;98.00;;;;;;5111519;28;20498;-68
2021/04/01 06:14:56;;;;;;;1.30;1.10;;;8.50;98.00;;;;;;5111461;28;20874;-69
2021/04/01 06:17:25;;;;;;;1.20;1.00;;;8.50;98.00;;;;;;5111238;28;20521;-69
2021/04/01 06:19:56;;;;;;;1.63;1.43;;;8.70;98.00;;;;;;5109056;28;20450;-69
2021/04/01 06:22:25;;;;;;;1.20;1.00;;;8.70;98.00;;;;;;5111206;28;20459;-69
2021/04/01 06:24:54;;;;;;;1.43;1.30;;;8.70;98.00;;;;;;5109580;28;20516;-69
2021/04/01 06:27:27;;;;;;;1.60;1.50;;;8.80;98.00;;;;;;5109975;28;20454;-67
2021/04/01 06:30:14;;;;;;;1.30;1.17;;;8.80;98.00;;;;;;5109575;28;20906;-68
2021/04/01 06:32:43;;;;;;;1.40;1.40;;;8.80;98.00;;;;;;5111036;28;20846;-68
2021/04/01 06:35:13;;;;;;;1.50;1.17;;;8.90;98.00;;;;;;5109584;28;20459;-67
2021/04/01 06:38:02;;;;;;;2.00;1.53;;;9.10;98.00;;;;;;5111175;28;20483;-68
2021/04/01 06:40:36;;;;;;;2.03;1.37;;;9.30;98.00;;;;;;5109550;28;20450;-68
2021/04/01 06:43:09;;;;;;;1.30;1.30;;;9.40;98.00;;;;;;5110979;28;20551;-68
2021/04/01 06:45:39;;;;;;;4.07;1.83;;;9.50;98.00;;;;;;5109052;28;20564;-69
2021/04/01 06:48:10;;;;;;;2.43;1.50;;;9.50;98.00;;;;;;5110936;28;20501;-69
2021/04/01 06:50:40;;;;;;;2.20;1.70;;;9.50;98.00;;;;;;5109138;28;20495;-68
2021/04/01 06:53:14;;;;;;;1.30;1.10;;;9.60;98.00;;;;;;5093458;28;20490;-69
2021/04/01 06:55:46;;;;;;;3.37;1.43;;;9.80;98.00;;;;;;5108996;28;20455;-67
2021/04/01 06:58:28;;;;;;;4.60;1.80;;;9.90;98.00;;;;;;5110603;28;20487;-67
2021/04/01 07:01:02;;;;;;;1.60;1.10;;;10.00;98.00;;;;;;5109042;28;20459;-67
2021/04/01 07:03:38;;;;;;;1.60;1.57;;;9.90;98.00;;;;;;5110849;28;20453;-68
2021/04/01 07:06:06;;;;;;;2.07;1.70;;;10.00;98.00;;;;;;5109524;28;20454;-67
2021/04/01 07:08:47;;;;;;;1.20;1.10;;;10.20;98.00;;;;;;5115175;28;20509;-68
2021/04/01 07:11:29;;;;;;;2.17;1.93;;;10.40;98.00;;;;;;5112199;28;20465;-67
2021/04/01 07:14:01;;;;;;;1.43;1.20;;;10.50;98.00;;;;;;5114772;28;20467;-68
2021/04/01 07:16:37;;;;;;;1.60;1.57;;;10.70;97.70;;;;;;5113295;28;20448;-67
2021/04/01 07:44:42;;;;;;;1.60;1.40;;;11.90;93.60;;;;;;5072381;28;20510;-70
2021/04/01 07:44:52;;;;;;;2.23;1.83;;;12.50;93.20;;;;;;5113985;28;20931;-69
2021/04/01 07:47:20;;;;;;;1.20;1.00;;;12.50;93.90;;;;;;5113777;28;20470;-70
2021/04/01 07:49:50;;;;;;;1.40;1.30;;;12.60;94.50;;;;;;5112107;28;20505;-69
2021/04/01 07:52:22;;;;;;;2.83;1.60;;;12.70;94.10;;;;;;5114051;28;20458;-70
2021/04/01 07:55:06;;;;;;;1.20;1.10;;;13.00;93.40;;;;;;5111688;28;20950;-69
2021/04/01 08:00:21;;;;;;;1.90;1.60;;;13.20;92.40;;;;;;5108138;28;20565;-70
2021/04/01 08:02:52;;;;;;;1.40;1.10;;;13.30;92.30;;;;;;5113284;28;20456;-68
2021/04/01 08:05:26;;;;;;;1.33;1.20;;;13.50;91.50;;;;;;5111256;28;20473;-71
2021/04/01 08:07:56;;;;;;;3.63;2.07;;;13.70;90.40;;;;;;5113308;28;20937;-68
2021/04/01 08:10:27;;;;;;;1.70;1.37;;;13.80;90.30;;;;;;5111481;28;20523;-68
2021/04/01 08:13:02;;;;;;;1.20;1.10;;;14.00;90.60;;;;;;5113101;28;20503;-71
2021/04/01 08:15:36;;;;;;;1.70;1.20;;;14.10;90.50;;;;;;5111085;28;20456;-68
2021/04/01 08:18:12;;;;;;;1.37;1.20;;;14.40;88.90;;;;;;5113118;28;20625;-68
2021/04/01 08:20:42;;;;;;;2.13;1.50;;;14.60;87.80;;;;;;5111620;28;20460;-68
2021/04/01 08:23:14;;;;;;;1.40;1.30;;;14.80;87.10;;;;;;5112098;28;20458;-67
2021/04/01 08:25:46;;;;;;;2.27;1.33;;;15.10;85.80;;;;;;5110195;28;20960;-68
2021/04/01 08:28:32;;;;;;;1.40;1.30;;;15.40;85.30;;;;;;5112338;28;20818;-68
2021/04/01 08:31:37;;;;;;;1.60;1.50;;;15.60;84.30;;;;;;5111410;28;20446;-69
2021/04/01 08:34:19;;;;;;;2.80;1.47;;;15.80;83.90;;;;;;5113150;28;20544;-68
2021/04/01 08:36:48;;;;;;;1.30;1.30;;;16.00;82.30;;;;;;5111632;28;20529;-68
2021/04/01 08:39:16;;;;;;;9.13;1.40;;;16.20;80.80;;;;;;5113246;27;20455;-68
2021/04/01 08:42:17;;;;;;;1.50;1.30;;;16.40;81.40;;;;;;5111222;28;20486;-68
2021/04/01 08:45:24;;;;;;;1.40;1.40;;;16.60;80.60;;;;;;5112978;28;20499;-68
2021/04/01 08:48:05;;;;;;;2.00;1.53;;;16.90;80.90;;;;;;5091150;28;20459;-68
2021/04/01 08:50:36;;;;;;;1.60;1.50;;;17.10;81.20;;;;;;5110818;28;20490;-68
2021/04/01 08:53:21;;;;;;;1.67;1.20;;;17.30;80.50;;;;;;5112937;28;20462;-68
2021/04/01 08:55:51;;;;;;;2.63;2.03;;;17.50;79.50;;;;;;5109377;28;20957;-69
2021/04/01 08:58:27;;;;;;;1.57;1.13;;;17.50;79.10;;;;;;5112813;28;20508;-68
2021/04/01 09:01:10;;;;;;;1.70;1.50;;;17.70;78.40;;;;;;5110776;28;20461;-68
2021/04/01 09:03:40;;;;;;;2.53;1.60;;;17.80;78.40;;;;;;5110502;28;20451;-69
2021/04/01 09:06:11;;;;;;;1.60;1.20;;;17.90;77.80;;;;;;5070407;28;20453;-69
2021/04/01 09:08:42;;;;;;;2.60;1.63;;;18.10;78.10;;;;;;5072689;28;20518;-69
2021/04/01 09:11:10;;;;;;;2.10;1.50;;;18.30;78.70;;;;;;5069938;28;20886;-69
2021/04/01 09:13:43;;;;;;;1.47;1.10;;;18.60;79.50;;;;;;5084888;28;20463;-69
2021/04/01 09:16:26;;;;;;;2.20;1.63;;;18.90;78.40;;;;;;5110570;27;20459;-69
2021/04/01 09:19:01;;;;;;;2.50;1.70;;;19.20;77.90;;;;;;5111460;28;21004;-69
2021/04/01 09:21:32;;;;;;;5.30;2.00;;;19.50;75.60;;;;;;5110562;28;20461;-69
2021/04/01 09:24:00;;;;;;;1.43;1.20;;;19.70;74.70;;;;;;5107428;28;20448;-69
2021/04/01 09:26:27;;;;;;;2.63;2.13;;;19.90;74.60;;;;;;5080674;28;20551;-69
2021/04/01 09:29:05;;;;;;;1.50;1.37;;;20.20;74.10;;;;;;5091680;28;20455;-70
2021/04/01 09:31:41;;;;;;;2.00;1.63;;;20.30;73.10;;;;;;5089810;28;20463;-69
2021/04/01 09:34:09;;;;;;;1.93;1.57;;;20.20;72.00;;;;;;5092238;28;20807;-69
2021/04/01 09:36:41;;;;;;;2.03;1.67;;;20.30;72.40;;;;;;5089550;28;20456;-69
2021/04/01 09:41:50;;;;;;;1.93;1.80;;;20.40;71.90;;;;;;5089621;28;20452;-69
2021/04/01 09:44:17;;;;;;;1.60;1.37;;;20.40;71.90;;;;;;5092244;28;20874;-69
2021/04/01 09:46:57;;;;;;;2.73;1.67;;;20.50;73.50;;;;;;5089216;28;20544;-69
2021/04/01 09:49:27;;;;;;;2.63;1.50;;;20.50;71.00;;;;;;5092506;28;20451;-69
2021/04/01 09:51:55;;;;;;;1.93;1.70;;;20.60;71.70;;;;;;5090283;28;20491;-69
2021/04/01 09:54:25;;;;;;;1.70;1.23;;;20.60;70.00;;;;;;5091698;28;20934;-70
2021/04/01 09:56:57;;;;;;;1.30;1.30;;;20.70;71.30;;;;;;5088834;28;21197;-69
2021/04/01 09:59:39;;;;;;;2.63;1.97;;;20.80;71.30;;;;;;5091941;28;20459;-69
2021/04/01 10:02:15;;;;;;;1.77;1.33;;;21.00;70.30;;;;;;5069638;28;20818;-69
2021/04/01 10:04:46;;;;;;;2.80;1.70;;;21.00;69.90;;;;;;5071704;28;20464;-69
2021/04/01 10:07:15;;;;;;;2.10;1.40;;;21.30;69.70;;;;;;5068974;28;20467;-69
2021/04/01 10:09:52;;;;;;;1.53;1.30;;;21.60;68.30;;;;;;5071684;28;20457;-70
2021/04/01 10:12:20;;;;;;;2.17;1.93;;;21.70;67.70;;;;;;5067707;28;20950;-69
2021/04/01 10:14:53;;;;;;;1.40;1.30;;;21.80;68.20;;;;;;5098460;28;20455;-69
2021/04/01 10:17:23;;;;;;;1.87;1.40;;;21.80;69.20;;;;;;5109153;28;20897;-69
2021/04/01 10:19:54;;;;;;;2.03;1.50;;;21.90;70.60;;;;;;5112097;28;20451;-69
2021/04/01 10:22:25;;;;;;;1.50;1.27;;;22.00;67.40;;;;;;5110304;28;20458;-69
2021/04/01 10:25:13;;;;;;;1.30;1.30;;;22.20;69.60;;;;;;5111888;28;20471;-70
2021/04/01 10:27:46;;;;;;;1.57;1.23;;;22.50;67.30;;;;;;5111966;28;20834;-69
2021/04/01 10:30:14;;;;;;;1.97;1.70;;;22.60;65.80;;;;;;5109515;28;20451;-70
2021/04/01 10:32:49;;;;;;;2.70;1.80;;;22.60;66.30;;;;;;5111779;28;20822;-69
2021/04/01 10:35:22;;;;;;;1.90;1.70;;;22.70;67.60;;;;;;5109119;28;20454;-68
2021/04/01 10:37:50;;;;;;;2.07;1.57;;;22.90;65.70;;;;;;5111540;28;20483;-69
2021/04/01 10:40:19;;;;;;;2.40;1.53;;;22.90;65.30;;;;;;5109204;28;20461;-69
2021/04/01 10:42:47;;;;;;;1.63;1.40;;;23.00;66.00;;;;;;5115111;28;20960;-69
2021/04/01 10:45:19;;;;;;;1.83;1.50;;;23.20;65.50;;;;;;5113389;28;20835;-69
2021/04/01 10:47:57;;;;;;;1.73;1.37;;;23.10;65.60;;;;;;5115484;28;20455;-69
2021/04/01 10:50:27;;;;;;;1.53;1.20;;;23.20;66.20;;;;;;5113881;28;20475;-71
2021/04/01 10:52:54;;;;;;;1.73;1.63;;;23.40;68.20;;;;;;5115919;28;20458;-68
2021/04/01 10:55:25;;;;;;;3.10;1.67;;;23.70;66.50;;;;;;5113767;28;20829;-69
2021/04/01 10:57:52;;;;;;;2.30;1.43;;;23.80;64.30;;;;;;5115819;28;20535;-69
2021/04/01 11:00:19;;;;;;;1.40;1.33;;;23.80;64.80;;;;;;5113809;28;20881;-68
2021/04/01 11:02:49;;;;;;;1.70;1.30;;;23.90;65.50;;;;;;5115812;28;20462;-67
2021/04/01 11:05:20;;;;;;;3.00;1.60;;;23.90;64.50;;;;;;5113320;28;20824;-69
2021/04/01 11:07:49;;;;;;;1.93;1.63;;;23.90;65.00;;;;;;5115611;28;20454;-68
2021/04/01 11:10:21;;;;;;;1.40;1.30;;;24.00;64.80;;;;;;5113259;28;20830;-68
2021/04/01 11:12:51;;;;;;;2.43;1.70;;;24.20;64.50;;;;;;5115626;28;20455;-68
2021/04/01 11:15:22;;;;;;;1.33;1.20;;;24.40;64.10;;;;;;5111799;28;20459;-69
2021/04/01 11:17:54;;;;;;;2.63;1.40;;;24.60;63.20;;;;;;5115326;28;20482;-68
2021/04/01 11:20:24;;;;;;;2.40;1.80;;;24.40;62.40;;;;;;5112881;28;20469;-67
2021/04/01 11:23:04;;;;;;;2.13;1.50;;;24.60;63.70;;;;;;5113626;28;20455;-67
2021/04/01 11:25:32;;;;;;;1.60;1.40;;;24.70;63.30;;;;;;5112384;27;20465;-67
2021/04/01 11:27:58;;;;;;;1.87;1.60;;;24.80;63.10;;;;;;5114573;28;21104;-68
2021/04/01 11:30:45;;;;;;;1.77;1.33;;;25.00;61.90;;;;;;5112042;28;20455;-69
2021/04/01 11:33:12;;;;;;;1.43;1.37;;;25.10;62.10;;;;;;5114440;28;20499;-69
2021/04/01 11:35:41;;;;;;;2.80;1.60;;;25.10;61.40;;;;;;5112806;28;20698;-69
2021/04/01 11:38:16;;;;;;;3.07;1.90;;;25.10;63.10;;;;;;5114079;28;20479;-68
2021/04/01 11:40:53;;;;;;;1.70;1.50;;;25.10;62.80;;;;;;5111743;28;20967;-68
2021/04/01 11:43:25;;;;;;;1.70;1.50;;;25.30;63.70;;;;;;5114314;28;20458;-68
2021/04/01 11:45:52;;;;;;;1.70;1.40;;;25.30;60.60;;;;;;5110197;28;20463;-68
2021/04/01 11:48:18;;;;;;;2.13;1.97;;;25.40;60.40;;;;;;5110610;28;20465;-68
2021/04/01 11:50:48;;;;;;;2.30;1.50;;;25.40;61.50;;;;;;5111395;28;20454;-68
2021/04/01 11:53:16;;;;;;;1.63;1.50;;;25.60;62.50;;;;;;5113114;28;20516;-68
2021/04/01 11:55:50;;;;;;;1.83;1.60;;;25.80;60.50;;;;;;5111813;28;20458;-68
2021/04/01 11:58:19;;;;;;;1.60;1.37;;;25.90;60.30;;;;;;5113240;28;20513;-68
2021/04/01 12:00:46;;;;;;;1.90;1.80;;;25.80;60.60;;;;;;5111651;28;20461;-68
2021/04/01 12:03:22;;;;;;;1.60;1.43;;;25.80;59.10;;;;;;5113548;28;21011;-68
2021/04/01 12:05:50;;;;;;;3.00;2.00;;;25.90;59.80;;;;;;5111355;28;20450;-69
2021/04/01 12:08:21;;;;;;;1.70;1.33;;;25.70;59.30;;;;;;5113074;28;21016;-68
2021/04/01 12:10:55;;;;;;;1.97;1.60;;;25.60;59.90;;;;;;5111169;28;20976;-68
2021/04/01 12:13:22;;;;;;;1.40;1.30;;;25.50;61.50;;;;;;5113112;28;20533;-68
2021/04/01 12:15:49;;;;;;;1.73;1.57;;;25.50;60.20;;;;;;5111137;28;20458;-67
2021/04/01 12:18:18;;;;;;;1.80;1.50;;;25.50;60.20;;;;;;5112729;28;20576;-68
2021/04/01 12:20:44;;;;;;;1.80;1.50;;;25.50;60.20;;;;;;5110976;28;20455;-68
2021/04/01 12:23:13;;;;;;;4.60;1.93;;;25.40;59.50;;;;;;5112945;28;20467;-68
2021/04/01 12:25:42;;;;;;;2.23;1.80;;;25.10;60.40;;;;;;5110845;28;20512;-68
2021/04/01 12:28:17;;;;;;;2.90;1.80;;;24.70;60.80;;;;;;5112619;28;20766;-68
2021/04/01 12:30:47;;;;;;;1.60;1.40;;;24.70;62.10;;;;;;5109497;28;20497;-68
2021/04/01 12:33:16;;;;;;;1.80;1.60;;;24.70;61.40;;;;;;5112794;28;20455;-70
2021/04/01 12:35:55;;;;;;;2.30;1.57;;;24.80;62.00;;;;;;5110566;28;20508;-71
2021/04/01 12:38:31;;;;;;;5.53;1.80;;;24.90;62.30;;;;;;5112221;28;20536;-68
2021/04/01 12:40:59;;;;;;;3.20;1.93;;;25.00;63.10;;;;;;5109276;28;20455;-69
2021/04/01 12:43:31;;;;;;;1.30;1.30;;;25.10;62.60;;;;;;5112783;28;20508;-69
2021/04/01 12:46:00;;;;;;;1.80;1.60;;;25.40;63.00;;;;;;5110460;28;20551;-68
2021/04/01 12:48:37;;;;;;;1.57;1.33;;;25.60;60.60;;;;;;5112383;28;20455;-67
2021/04/01 12:51:07;;;;;;;2.03;1.70;;;25.70;61.10;;;;;;5110456;28;20455;-67
2021/04/01 12:53:42;;;;;;;1.87;1.70;;;25.80;61.10;;;;;;5113137;28;20451;-68
2021/04/01 12:56:13;;;;;;;6.10;1.50;;;26.00;62.30;;;;;;5110356;28;20469;-67
2021/04/01 12:58:44;;;;;;;2.40;1.77;;;26.00;59.40;;;;;;5112530;28;20494;-68
2021/04/01 13:01:14;;;;;;;1.77;1.60;;;26.20;60.00;;;;;;5109034;28;21018;-67
2021/04/01 13:03:41;;;;;;;1.67;1.40;;;26.30;58.90;;;;;;5112211;28;20684;-69
2021/04/01 13:06:10;;;;;;;4.33;1.60;;;26.60;58.10;;;;;;5109959;28;20806;-69
2021/04/01 13:11:25;;;;;;;2.03;1.60;;;26.90;57.90;;;;;;5110524;28;20438;-68
2021/04/01 13:13:54;;;;;;;1.87;1.33;;;27.10;57.40;;;;;;5112396;28;20462;-68
2021/04/01 13:16:20;;;;;;;1.33;1.33;;;27.10;57.10;;;;;;5110208;28;20459;-67
2021/04/01 13:18:47;;;;;;;2.73;1.60;;;27.10;56.20;;;;;;5111905;28;20510;-68
2021/04/01 13:21:33;;;;;;;1.73;1.47;;;26.80;56.90;;;;;;5110170;28;20470;-68
2021/04/01 13:24:09;;;;;;;2.83;1.90;;;26.60;57.50;;;;;;5112226;28;20582;-67
2021/04/01 13:26:37;;;;;;;2.63;1.60;;;26.30;58.10;;;;;;5110001;28;20457;-67
2021/04/01 13:29:07;;;;;;;2.00;1.67;;;26.00;58.40;;;;;;5112058;28;20459;-67
2021/04/01 13:31:46;;;;;;;1.70;1.60;;;25.70;58.90;;;;;;5109894;28;20473;-67
2021/04/01 13:34:18;;;;;;;2.50;1.90;;;25.60;59.20;;;;;;5112921;28;20480;-67
2021/04/01 13:36:49;;;;;;;1.50;1.30;;;25.40;60.50;;;;;;5109496;28;21166;-68
2021/04/01 13:39:24;;;;;;;1.50;1.33;;;25.40;59.40;;;;;;5111857;28;20483;-67
2021/04/01 13:44:37;;;;;;;1.50;1.50;;;25.70;59.30;;;;;;5110937;28;20446;-68
2021/04/01 13:47:04;;;;;;;2.57;1.87;;;26.20;58.80;;;;;;5109748;28;20458;-67
2021/04/01 13:49:32;;;;;;;1.80;1.50;;;26.50;58.00;;;;;;5112551;28;20541;-67
2021/04/01 13:52:07;;;;;;;3.30;2.00;;;26.60;57.50;;;;;;5109541;28;20512;-67
2021/04/01 13:54:47;;;;;;;1.60;1.30;;;26.80;58.10;;;;;;5112706;28;20439;-68
2021/04/01 13:57:29;;;;;;;4.17;1.70;;;26.90;58.10;;;;;;5109658;28;20450;-67
2021/04/01 14:00:15;;;;;;;1.80;1.40;;;26.80;56.80;;;;;;5112443;28;20459;-67
2021/04/01 14:11:01;;;;;;;1.83;1.60;;;26.90;56.90;;;;;;5109396;28;20872;-68